Time;durP1;ratioP1;P1;durP2;ratioP2;P2;SDS_P1;SDS_P2;PMS_P1;PMS_P2;Temp;Humidity;BMP_temperature;BMP_pressure;BME280_temperature;BME280_humidity;BME280_pressure;Samples;Min_cycle;Max_cycle;Signal;HPM_P1;HPM_P2
2021/07/01 00:01:01;;;;;;;23.80;12.57;;;15.20;99.90;;;;;;5068839;28;20207;-76
2021/07/01 00:03:27;;;;;;;33.90;16.60;;;15.20;99.90;;;;;;5066123;28;20193;-76
2021/07/01 00:05:53;;;;;;;25.20;15.07;;;15.20;99.90;;;;;;5066869;28;20177;-76
2021/07/01 00:08:18;;;;;;;26.57;13.83;;;15.20;99.90;;;;;;5064517;28;20209;-76
2021/07/01 00:10:44;;;;;;;26.93;15.50;;;15.20;99.90;;;;;;5067661;28;20177;-76
2021/07/01 00:13:10;;;;;;;22.30;14.07;;;15.20;99.90;;;;;;5069906;28;20176;-76
2021/07/01 00:15:37;;;;;;;24.10;14.30;;;15.10;99.90;;;;;;5067373;28;20211;-76
2021/07/01 00:18:06;;;;;;;21.53;14.70;;;15.20;99.90;;;;;;5072883;28;20564;-76
2021/07/01 00:20:31;;;;;;;27.53;14.03;;;15.20;99.90;;;;;;5070846;28;20421;-77
2021/07/01 00:22:57;;;;;;;23.37;14.07;;;15.30;99.90;;;;;;5069398;28;20419;-77
2021/07/01 00:25:23;;;;;;;22.83;12.80;;;15.20;99.90;;;;;;5072845;28;20176;-77
2021/07/01 00:27:49;;;;;;;26.73;13.97;;;15.10;99.90;;;;;;5087507;28;21014;-77
2021/07/01 00:30:17;;;;;;;19.63;11.87;;;15.10;99.90;;;;;;5068893;28;20474;-77
2021/07/01 00:32:43;;;;;;;19.17;11.30;;;15.10;99.90;;;;;;5073085;28;20169;-77
2021/07/01 00:35:09;;;;;;;18.03;11.30;;;15.20;99.90;;;;;;5067312;28;20453;-77
2021/07/01 00:37:35;;;;;;;16.03;11.00;;;15.10;99.90;;;;;;5065555;28;20422;-76
2021/07/01 00:40:04;;;;;;;13.67;9.53;;;15.10;99.90;;;;;;5070425;28;20431;-76
2021/07/01 00:42:29;;;;;;;17.57;11.30;;;15.10;99.90;;;;;;5073049;28;20522;-76
2021/07/01 00:44:55;;;;;;;17.37;10.63;;;15.10;99.90;;;;;;5070267;28;20522;-77
2021/07/01 00:47:21;;;;;;;15.00;10.13;;;15.10;99.90;;;;;;5072725;28;20195;-76
2021/07/01 00:49:47;;;;;;;15.90;10.37;;;15.10;99.90;;;;;;5072436;28;20713;-76
2021/07/01 00:52:13;;;;;;;13.00;11.00;;;15.10;99.90;;;;;;5070908;28;20652;-76
2021/07/01 00:54:39;;;;;;;14.80;10.80;;;15.10;99.90;;;;;;5074768;28;20184;-76
2021/07/01 00:57:09;;;;;;;14.20;10.20;;;15.00;99.90;;;;;;5072617;28;20441;-76
2021/07/01 00:59:36;;;;;;;13.53;9.20;;;15.10;99.90;;;;;;5072065;28;20415;-76
2021/07/01 01:02:03;;;;;;;17.17;10.37;;;15.00;99.90;;;;;;5069147;28;20430;-76
2021/07/01 01:04:29;;;;;;;16.63;9.40;;;15.00;99.90;;;;;;5068315;28;20490;-76
2021/07/01 01:06:54;;;;;;;11.77;9.00;;;15.10;99.90;;;;;;5066982;28;20477;-76
2021/07/01 01:09:20;;;;;;;12.13;8.90;;;15.10;99.90;;;;;;5067460;28;20199;-76
2021/07/01 01:11:46;;;;;;;18.50;9.00;;;15.00;99.90;;;;;;5067145;28;20184;-76
2021/07/01 01:14:12;;;;;;;12.77;8.00;;;15.00;99.90;;;;;;5072376;28;20238;-76
2021/07/01 01:16:37;;;;;;;10.10;8.30;;;15.10;99.90;;;;;;5069612;28;20653;-76
2021/07/01 01:19:03;;;;;;;12.83;8.33;;;15.00;99.90;;;;;;5069046;28;20622;-76
2021/07/01 01:21:30;;;;;;;13.83;8.50;;;15.00;99.90;;;;;;5086362;28;20185;-77
2021/07/01 01:23:58;;;;;;;11.10;7.47;;;15.00;99.90;;;;;;5071660;28;20229;-76
2021/07/01 01:26:23;;;;;;;8.60;7.20;;;15.10;99.90;;;;;;5070977;28;20469;-76
2021/07/01 01:28:54;;;;;;;9.40;7.30;;;15.10;99.90;;;;;;5067772;28;20489;-76
2021/07/01 01:31:21;;;;;;;11.00;8.00;;;15.10;99.90;;;;;;5068735;28;20192;-76
2021/07/01 01:33:48;;;;;;;10.47;7.47;;;15.00;99.90;;;;;;5070174;28;20446;-76
2021/07/01 01:36:14;;;;;;;8.90;6.70;;;15.00;99.90;;;;;;5072147;28;20462;-76
2021/07/01 01:38:39;;;;;;;10.90;7.17;;;15.00;99.90;;;;;;5069288;28;20934;-76
2021/07/01 01:41:05;;;;;;;6.80;6.10;;;15.00;99.90;;;;;;5071571;28;20194;-76
2021/07/01 01:43:31;;;;;;;6.53;5.50;;;15.00;99.90;;;;;;5068899;28;20255;-76
2021/07/01 01:45:56;;;;;;;7.00;6.10;;;15.00;99.90;;;;;;5069043;28;20187;-76
2021/07/01 01:48:22;;;;;;;6.53;5.90;;;15.00;99.90;;;;;;5068750;28;20200;-76
2021/07/01 01:50:49;;;;;;;6.93;5.40;;;15.00;99.90;;;;;;5068723;28;20192;-76
2021/07/01 01:53:14;;;;;;;7.70;6.20;;;15.10;99.90;;;;;;5071663;28;20182;-76
2021/07/01 01:55:41;;;;;;;7.70;6.23;;;15.00;99.90;;;;;;5069432;28;20418;-76
2021/07/01 01:58:07;;;;;;;8.47;6.73;;;15.10;99.90;;;;;;5072063;28;20681;-76
2021/07/01 02:00:34;;;;;;;7.23;6.53;;;15.10;99.90;;;;;;5085887;28;20518;-76
2021/07/01 02:03:00;;;;;;;6.40;5.37;;;15.00;99.90;;;;;;5084329;28;20989;-76
2021/07/01 02:05:26;;;;;;;6.83;5.73;;;15.00;99.90;;;;;;5070226;28;20426;-76
2021/07/01 02:07:52;;;;;;;8.00;6.70;;;15.00;99.90;;;;;;5068658;28;20439;-76
2021/07/01 02:10:23;;;;;;;8.50;6.47;;;15.00;99.90;;;;;;5069548;28;20473;-76
2021/07/01 02:12:50;;;;;;;6.87;6.03;;;15.10;99.90;;;;;;5069087;28;20181;-76
2021/07/01 02:15:20;;;;;;;6.70;6.07;;;15.00;99.90;;;;;;5083209;28;20419;-76
2021/07/01 02:17:46;;;;;;;7.77;6.83;;;15.00;99.90;;;;;;5070711;28;20419;-76
2021/07/01 02:20:14;;;;;;;8.43;6.63;;;15.00;99.90;;;;;;5070969;28;20423;-77
2021/07/01 02:22:41;;;;;;;10.00;7.30;;;15.00;99.90;;;;;;5070899;28;20169;-76
2021/07/01 02:25:08;;;;;;;8.43;6.67;;;15.00;99.90;;;;;;5086657;28;20495;-76
2021/07/01 02:27:35;;;;;;;12.30;8.40;;;14.90;99.90;;;;;;5070656;28;20434;-76
2021/07/01 02:30:03;;;;;;;9.30;7.60;;;14.80;99.90;;;;;;5068488;28;20461;-76
2021/07/01 02:32:29;;;;;;;10.60;7.47;;;14.80;99.90;;;;;;5068005;28;20419;-76
2021/07/01 02:34:56;;;;;;;9.13;8.07;;;14.80;99.90;;;;;;5068667;28;20479;-76
2021/07/01 02:37:23;;;;;;;12.70;7.87;;;14.80;99.90;;;;;;5070356;28;20268;-76
2021/07/01 02:39:49;;;;;;;10.40;7.50;;;14.80;99.90;;;;;;5070527;28;20469;-76
2021/07/01 02:42:14;;;;;;;12.40;9.07;;;14.80;99.90;;;;;;5070061;28;21261;-76
2021/07/01 02:44:40;;;;;;;10.73;8.50;;;14.80;99.90;;;;;;5067245;28;20259;-76
2021/07/01 02:47:06;;;;;;;10.33;7.80;;;14.80;99.90;;;;;;5070689;28;20513;-76
2021/07/01 02:49:32;;;;;;;11.67;8.20;;;14.80;99.90;;;;;;5070634;28;20212;-76
2021/07/01 02:51:58;;;;;;;15.93;7.90;;;14.80;99.90;;;;;;5066551;28;20207;-76
2021/07/01 02:54:24;;;;;;;11.87;8.47;;;14.80;99.90;;;;;;5070660;28;20180;-76
2021/07/01 02:56:50;;;;;;;9.83;8.33;;;14.80;99.90;;;;;;5071625;28;20513;-76
2021/07/01 02:59:18;;;;;;;9.37;7.87;;;14.80;99.90;;;;;;5086242;28;20541;-76
2021/07/01 03:01:45;;;;;;;9.77;8.03;;;14.80;99.90;;;;;;5064099;28;20245;-76
2021/07/01 03:04:10;;;;;;;10.97;7.67;;;14.80;99.90;;;;;;5069045;28;20438;-76
2021/07/01 03:06:37;;;;;;;11.83;7.97;;;14.80;99.90;;;;;;5071317;28;20415;-76
2021/07/01 03:09:04;;;;;;;8.50;6.80;;;14.80;99.90;;;;;;5068809;28;20208;-76
2021/07/01 03:11:30;;;;;;;15.63;6.73;;;14.80;99.90;;;;;;5068261;28;20487;-76
2021/07/01 03:13:56;;;;;;;8.87;7.50;;;14.80;99.90;;;;;;5070942;28;20521;-76
2021/07/01 03:16:22;;;;;;;8.80;7.50;;;14.90;99.90;;;;;;5068114;28;20415;-76
2021/07/01 03:18:51;;;;;;;8.80;7.10;;;14.90;99.90;;;;;;5069262;28;20210;-76
2021/07/01 03:21:18;;;;;;;10.60;7.73;;;14.90;99.90;;;;;;5086405;28;20180;-76
2021/07/01 03:23:45;;;;;;;9.37;7.90;;;14.90;99.90;;;;;;5071650;28;20450;-76
2021/07/01 03:26:12;;;;;;;11.30;8.40;;;14.90;99.90;;;;;;5071296;28;20433;-76
2021/07/01 03:28:38;;;;;;;8.47;7.00;;;14.90;99.90;;;;;;5069870;28;20789;-77
2021/07/01 03:31:05;;;;;;;11.57;7.43;;;15.00;99.90;;;;;;5068495;28;20434;-76
2021/07/01 03:33:31;;;;;;;10.60;7.70;;;14.90;99.90;;;;;;5069491;28;20180;-76
2021/07/01 03:35:58;;;;;;;10.80;8.30;;;14.80;99.90;;;;;;5072270;28;20885;-77
2021/07/01 03:38:23;;;;;;;12.57;9.27;;;14.90;99.90;;;;;;5071316;28;20430;-77
2021/07/01 03:40:49;;;;;;;8.97;7.40;;;14.90;99.90;;;;;;5071107;28;20766;-77
2021/07/01 03:43:15;;;;;;;9.80;8.30;;;14.90;99.90;;;;;;5069241;28;20719;-78
2021/07/01 03:45:41;;;;;;;9.00;8.10;;;14.90;99.90;;;;;;5067720;28;20798;-77
2021/07/01 03:48:07;;;;;;;10.67;7.60;;;14.80;99.90;;;;;;5069925;28;20189;-78
2021/07/01 03:50:33;;;;;;;8.40;7.57;;;14.80;99.90;;;;;;5067220;28;20165;-77
2021/07/01 03:52:59;;;;;;;9.53;6.60;;;14.80;99.90;;;;;;5070273;28;21032;-78
2021/07/01 03:55:25;;;;;;;7.60;6.87;;;14.70;99.90;;;;;;5067819;28;20173;-78
2021/07/01 03:57:50;;;;;;;8.10;6.67;;;14.70;99.90;;;;;;5071217;28;20219;-77
2021/07/01 04:00:16;;;;;;;8.23;7.20;;;14.80;99.90;;;;;;5071763;28;20427;-77
2021/07/01 04:02:42;;;;;;;6.97;6.37;;;14.80;99.90;;;;;;5069064;28;20180;-77
2021/07/01 04:05:08;;;;;;;5.87;5.20;;;14.80;99.90;;;;;;5071022;28;20468;-76
2021/07/01 04:07:34;;;;;;;6.10;5.50;;;14.80;99.90;;;;;;5071569;28;20188;-77
2021/07/01 04:10:01;;;;;;;5.70;5.00;;;14.80;99.90;;;;;;5070573;28;20516;-77
2021/07/01 04:12:27;;;;;;;6.17;5.57;;;14.80;99.90;;;;;;5069795;28;20259;-77
2021/07/01 04:14:53;;;;;;;4.63;4.23;;;14.70;99.90;;;;;;5069956;28;20505;-76
2021/07/01 04:17:18;;;;;;;4.60;4.30;;;14.80;99.90;;;;;;5070156;28;20259;-77
2021/07/01 04:19:44;;;;;;;5.43;4.93;;;14.80;99.90;;;;;;5070900;28;20535;-76
2021/07/01 04:22:10;;;;;;;6.17;5.23;;;14.80;99.90;;;;;;5069024;28;20557;-76
2021/07/01 04:24:35;;;;;;;4.70;4.33;;;14.80;99.90;;;;;;5068053;28;20181;-76
2021/07/01 04:27:01;;;;;;;4.57;4.17;;;14.80;99.90;;;;;;5069922;28;20172;-76
2021/07/01 04:29:27;;;;;;;5.93;5.33;;;14.80;99.90;;;;;;5069404;28;20235;-77
2021/07/01 04:31:52;;;;;;;4.40;4.10;;;14.80;99.90;;;;;;5066325;28;20183;-76
2021/07/01 04:34:18;;;;;;;4.63;4.23;;;14.80;99.90;;;;;;5071084;28;20193;-76
2021/07/01 04:36:44;;;;;;;5.17;4.67;;;14.70;99.90;;;;;;5071079;28;20524;-76
2021/07/01 04:39:10;;;;;;;7.17;4.80;;;14.80;99.90;;;;;;5070500;28;20626;-76
2021/07/01 04:41:35;;;;;;;6.37;5.40;;;14.80;99.90;;;;;;5085241;28;20184;-76
2021/07/01 04:44:01;;;;;;;4.40;4.00;;;14.80;99.90;;;;;;5068638;28;20439;-76
2021/07/01 04:46:27;;;;;;;4.53;4.13;;;14.80;99.90;;;;;;5064011;28;20522;-76
2021/07/01 04:48:53;;;;;;;4.60;4.20;;;14.90;99.90;;;;;;5070307;28;20323;-76
2021/07/01 04:51:19;;;;;;;5.10;4.50;;;14.90;99.90;;;;;;5066172;28;20175;-76
2021/07/01 04:53:44;;;;;;;7.10;5.20;;;14.90;99.90;;;;;;5070259;28;20967;-76
2021/07/01 04:56:10;;;;;;;5.47;5.00;;;14.90;99.90;;;;;;5068545;28;20766;-76
2021/07/01 04:58:36;;;;;;;8.37;6.17;;;14.90;99.90;;;;;;5086084;28;20195;-76
2021/07/01 05:01:02;;;;;;;6.33;4.80;;;15.00;99.90;;;;;;5067162;28;20187;-76
2021/07/01 05:03:28;;;;;;;7.77;6.37;;;15.00;99.90;;;;;;5069782;28;20604;-76
2021/07/01 05:05:54;;;;;;;7.20;5.30;;;15.00;99.90;;;;;;5074942;28;20924;-76
2021/07/01 05:08:20;;;;;;;6.63;5.73;;;15.00;99.90;;;;;;5071461;28;20203;-76
2021/07/01 05:10:45;;;;;;;5.73;4.60;;;14.90;99.90;;;;;;5066496;28;21809;-76
2021/07/01 05:13:11;;;;;;;5.53;5.00;;;14.90;99.90;;;;;;5066315;28;20819;-76
2021/07/01 05:15:37;;;;;;;6.07;5.47;;;14.90;99.90;;;;;;5068365;28;20179;-76
2021/07/01 05:18:03;;;;;;;5.90;5.27;;;14.90;99.90;;;;;;5073584;28;20230;-76
2021/07/01 05:20:30;;;;;;;6.70;5.73;;;14.90;99.90;;;;;;5073554;28;20489;-76
2021/07/01 05:22:56;;;;;;;5.67;4.80;;;14.90;99.90;;;;;;5068825;28;20475;-75
2021/07/01 05:25:21;;;;;;;6.53;5.57;;;14.90;99.90;;;;;;5085828;28;20431;-75
2021/07/01 05:27:47;;;;;;;6.80;5.60;;;14.90;99.90;;;;;;5071392;28;20659;-76
2021/07/01 05:30:13;;;;;;;5.70;5.07;;;14.90;99.90;;;;;;5087958;28;20634;-75
2021/07/01 05:32:39;;;;;;;7.10;5.33;;;14.90;99.90;;;;;;5066290;28;20183;-75
2021/07/01 05:35:06;;;;;;;5.23;4.70;;;15.00;99.90;;;;;;5068080;28;20533;-76
2021/07/01 05:37:33;;;;;;;5.57;5.07;;;15.00;99.90;;;;;;5069640;28;20193;-75
2021/07/01 05:39:58;;;;;;;5.60;5.07;;;15.00;99.90;;;;;;5071331;28;20427;-75
2021/07/01 05:42:24;;;;;;;8.60;5.60;;;15.00;99.90;;;;;;5065748;28;20181;-75
2021/07/01 05:44:50;;;;;;;8.67;5.20;;;14.90;99.90;;;;;;5063451;28;20211;-75
2021/07/01 05:47:16;;;;;;;5.67;4.60;;;14.90;99.90;;;;;;5072643;28;20184;-76
2021/07/01 05:49:42;;;;;;;5.33;4.77;;;14.90;99.90;;;;;;5062283;28;20467;-75
2021/07/01 05:52:08;;;;;;;6.73;6.03;;;14.90;99.90;;;;;;5062388;28;20946;-75
2021/07/01 05:54:36;;;;;;;5.73;5.10;;;15.00;99.90;;;;;;5067131;28;20222;-76
2021/07/01 05:57:04;;;;;;;5.97;5.37;;;15.10;99.90;;;;;;5069679;28;20441;-76
2021/07/01 05:59:30;;;;;;;5.63;4.33;;;15.00;99.90;;;;;;5065474;28;20435;-76
2021/07/01 06:01:56;;;;;;;5.03;3.90;;;15.10;99.90;;;;;;5069151;28;21098;-76
2021/07/01 06:04:22;;;;;;;6.67;4.63;;;15.10;99.90;;;;;;5069901;28;20529;-76
2021/07/01 06:06:53;;;;;;;4.63;4.20;;;15.10;99.90;;;;;;5068547;28;20185;-76
2021/07/01 06:09:25;;;;;;;4.40;4.03;;;15.10;99.90;;;;;;5071490;28;20200;-76
2021/07/01 06:12:00;;;;;;;4.50;3.53;;;15.10;99.90;;;;;;5068362;28;20512;-76
2021/07/01 06:14:27;;;;;;;4.90;4.47;;;15.10;99.90;;;;;;5068951;28;20438;-76
2021/07/01 06:16:56;;;;;;;4.30;3.90;;;15.10;99.90;;;;;;5070770;28;20434;-76
2021/07/01 06:19:22;;;;;;;4.33;3.97;;;15.10;99.90;;;;;;5072719;28;20844;-76
2021/07/01 06:21:49;;;;;;;4.67;4.27;;;15.10;99.90;;;;;;5086577;28;20439;-76
2021/07/01 06:24:16;;;;;;;3.80;3.50;;;15.10;99.90;;;;;;5067154;28;20438;-77
2021/07/01 06:26:43;;;;;;;5.07;4.30;;;15.20;99.90;;;;;;5069057;28;20469;-76
2021/07/01 06:29:11;;;;;;;4.53;3.80;;;15.20;99.90;;;;;;5068151;28;20459;-76
2021/07/01 06:31:37;;;;;;;3.70;3.40;;;15.20;99.90;;;;;;5069730;28;20481;-76
2021/07/01 06:34:03;;;;;;;3.93;3.63;;;15.10;99.90;;;;;;5070513;28;20496;-76
2021/07/01 06:36:29;;;;;;;3.90;3.57;;;15.10;99.90;;;;;;5068489;28;20899;-76
2021/07/01 06:38:59;;;;;;;4.27;3.90;;;15.10;99.90;;;;;;5070955;28;20230;-77
2021/07/01 06:41:30;;;;;;;4.30;4.00;;;15.10;99.90;;;;;;5067593;28;20462;-77
2021/07/01 06:43:57;;;;;;;3.93;3.63;;;15.10;99.90;;;;;;5065003;28;20895;-77
2021/07/01 06:46:30;;;;;;;4.37;3.43;;;15.10;99.90;;;;;;5065778;28;20462;-77
2021/07/01 06:48:56;;;;;;;3.90;3.60;;;15.10;99.90;;;;;;5051053;28;20587;-77
2021/07/01 06:51:22;;;;;;;3.00;2.80;;;15.10;99.90;;;;;;5067548;28;20471;-77
2021/07/01 06:53:48;;;;;;;3.07;2.80;;;15.10;99.90;;;;;;5083167;28;20882;-78
2021/07/01 06:56:13;;;;;;;3.20;2.90;;;15.20;99.90;;;;;;5083045;28;20466;-77
2021/07/01 06:58:43;;;;;;;6.30;2.00;;;15.10;99.90;;;;;;5065819;28;20192;-77
2021/07/01 07:01:10;;;;;;;2.90;2.70;;;15.10;99.90;;;;;;5066230;28;20180;-77
2021/07/01 07:03:36;;;;;;;6.20;2.70;;;15.10;99.90;;;;;;5066791;28;20994;-77
2021/07/01 07:06:02;;;;;;;4.23;2.80;;;15.20;99.90;;;;;;5070062;28;20415;-77
2021/07/01 07:08:29;;;;;;;2.90;2.70;;;15.30;99.90;;;;;;5065421;28;20948;-77
2021/07/01 07:10:55;;;;;;;2.60;2.13;;;15.30;99.90;;;;;;5068715;28;20427;-77
2021/07/01 07:13:24;;;;;;;2.70;2.50;;;15.40;99.90;;;;;;5063940;28;20427;-76
2021/07/01 07:15:52;;;;;;;2.63;2.43;;;15.40;99.90;;;;;;5065557;28;20926;-77
2021/07/01 07:18:34;;;;;;;3.67;2.20;;;15.50;99.90;;;;;;5064821;28;20485;-77
2021/07/01 07:21:08;;;;;;;2.43;2.23;;;15.50;99.90;;;;;;5068531;28;20426;-76
2021/07/01 07:23:37;;;;;;;2.53;2.33;;;15.50;99.90;;;;;;5063602;28;20419;-76
2021/07/01 07:26:13;;;;;;;2.80;2.60;;;15.50;99.90;;;;;;5068924;28;20880;-76
2021/07/01 07:28:41;;;;;;;3.23;3.03;;;15.50;99.90;;;;;;5066535;28;20458;-76
2021/07/01 07:31:11;;;;;;;2.40;2.20;;;15.60;99.90;;;;;;5063579;28;20496;-76
2021/07/01 07:33:38;;;;;;;2.80;2.60;;;15.70;99.90;;;;;;5067876;28;20882;-76
2021/07/01 07:36:04;;;;;;;2.87;2.67;;;15.80;99.90;;;;;;5062757;28;20431;-76
2021/07/01 07:38:29;;;;;;;3.10;2.83;;;15.80;99.90;;;;;;5066405;28;20442;-76
2021/07/01 07:40:57;;;;;;;2.73;2.50;;;15.90;99.90;;;;;;5062610;28;20426;-76
2021/07/01 07:43:23;;;;;;;2.30;2.10;;;16.00;99.90;;;;;;5062913;28;20215;-77
2021/07/01 07:45:51;;;;;;;2.00;1.90;;;16.10;99.90;;;;;;5067028;28;20431;-76
2021/07/01 07:48:18;;;;;;;2.50;2.30;;;16.10;99.90;;;;;;5067424;28;20474;-76
2021/07/01 07:50:50;;;;;;;2.80;2.60;;;16.30;99.90;;;;;;5068342;28;20963;-76
2021/07/01 07:53:36;;;;;;;2.60;2.40;;;16.30;99.90;;;;;;5082317;28;20903;-76
2021/07/01 07:56:08;;;;;;;3.23;2.50;;;16.50;99.90;;;;;;5067843;28;20505;-76
2021/07/01 07:58:38;;;;;;;3.07;2.80;;;16.50;99.90;;;;;;5068779;28;20433;-76
2021/07/01 08:01:07;;;;;;;2.90;2.70;;;16.60;99.90;;;;;;5068200;28;20939;-76
2021/07/01 08:03:33;;;;;;;3.30;3.10;;;16.70;99.90;;;;;;5069836;28;20774;-76
2021/07/01 08:06:02;;;;;;;3.47;3.17;;;16.70;99.90;;;;;;5066167;28;20733;-76
2021/07/01 08:08:31;;;;;;;4.33;3.10;;;16.80;99.90;;;;;;5067130;28;20588;-76
2021/07/01 08:11:02;;;;;;;3.40;3.20;;;16.70;99.90;;;;;;5066668;28;20437;-76
2021/07/01 08:13:29;;;;;;;3.60;3.30;;;16.80;99.90;;;;;;5066252;28;23250;-76
2021/07/01 08:15:55;;;;;;;4.90;3.67;;;16.80;99.90;;;;;;5063320;28;21020;-76
2021/07/01 08:18:31;;;;;;;3.67;3.40;;;16.90;99.90;;;;;;5066008;28;20937;-76
2021/07/01 08:20:58;;;;;;;4.17;3.73;;;16.90;99.90;;;;;;5071661;28;20406;-76
2021/07/01 08:23:24;;;;;;;3.23;3.03;;;17.00;99.90;;;;;;5067526;28;20536;-76
2021/07/01 08:25:52;;;;;;;2.93;2.73;;;17.00;99.90;;;;;;5065883;28;20427;-76
2021/07/01 08:28:20;;;;;;;3.60;3.33;;;17.10;99.90;;;;;;5067634;28;20422;-77
2021/07/01 08:30:46;;;;;;;3.33;3.03;;;17.20;99.90;;;;;;5066495;28;20465;-76
2021/07/01 08:33:15;;;;;;;3.70;3.37;;;17.20;99.90;;;;;;5067230;28;20872;-76
2021/07/01 08:35:41;;;;;;;3.80;3.60;;;17.20;99.90;;;;;;5071339;28;20544;-76
2021/07/01 08:38:08;;;;;;;3.27;2.97;;;17.10;99.90;;;;;;5072496;28;20749;-76
2021/07/01 08:40:36;;;;;;;3.80;3.50;;;17.10;99.90;;;;;;5071862;28;20172;-76
2021/07/01 08:43:04;;;;;;;4.10;3.80;;;17.00;99.90;;;;;;5073364;28;20431;-75
2021/07/01 08:45:40;;;;;;;4.03;3.67;;;17.00;99.90;;;;;;5067109;28;20922;-76
2021/07/01 08:48:19;;;;;;;3.83;3.53;;;17.00;99.90;;;;;;5071572;28;20462;-76
2021/07/01 08:50:53;;;;;;;4.50;4.20;;;17.00;99.90;;;;;;5069701;28;20786;-76
2021/07/01 08:53:41;;;;;;;4.20;3.90;;;16.90;99.90;;;;;;5068084;28;20536;-76
2021/07/01 08:56:11;;;;;;;3.80;3.50;;;17.00;99.90;;;;;;5070339;28;20760;-76
2021/07/01 08:58:46;;;;;;;3.30;3.10;;;17.10;99.90;;;;;;5069375;28;20488;-76
2021/07/01 09:01:12;;;;;;;3.10;2.90;;;17.10;99.90;;;;;;5071182;28;20434;-77
2021/07/01 09:03:43;;;;;;;4.00;3.70;;;17.30;99.90;;;;;;5068555;28;20469;-76
2021/07/01 09:06:17;;;;;;;3.40;3.10;;;17.30;99.90;;;;;;5071030;28;20426;-76
2021/07/01 09:08:48;;;;;;;2.90;2.70;;;17.30;99.90;;;;;;5064819;28;20458;-76
2021/07/01 09:11:16;;;;;;;3.37;3.13;;;17.30;99.90;;;;;;5072239;28;20422;-76
2021/07/01 09:13:47;;;;;;;3.13;2.93;;;17.40;99.90;;;;;;5067353;28;20585;-76
2021/07/01 09:16:15;;;;;;;9.43;3.33;;;17.50;99.90;;;;;;5070504;28;20892;-76
2021/07/01 09:18:41;;;;;;;2.90;2.70;;;17.50;99.90;;;;;;5072317;28;20431;-76
2021/07/01 09:21:07;;;;;;;2.63;2.47;;;17.50;99.90;;;;;;5070830;28;20466;-76
2021/07/01 09:23:34;;;;;;;2.70;2.50;;;17.50;99.90;;;;;;5067170;28;20522;-76
2021/07/01 09:26:04;;;;;;;2.93;2.63;;;17.50;99.90;;;;;;5067056;28;20187;-76
2021/07/01 09:28:30;;;;;;;2.73;2.60;;;17.50;99.90;;;;;;5069061;28;20913;-76
2021/07/01 09:30:57;;;;;;;3.70;3.40;;;17.40;99.90;;;;;;5069986;28;20438;-76
2021/07/01 09:33:24;;;;;;;3.10;2.90;;;17.50;99.90;;;;;;5068858;28;20195;-76
2021/07/01 09:35:50;;;;;;;4.07;3.67;;;17.40;99.90;;;;;;5070921;28;20949;-76
2021/07/01 09:38:18;;;;;;;2.67;2.57;;;17.40;99.90;;;;;;5087687;28;20472;-76
2021/07/01 09:40:44;;;;;;;3.97;3.67;;;17.40;99.90;;;;;;5068810;28;20426;-76
2021/07/01 09:43:09;;;;;;;3.67;3.47;;;17.50;99.90;;;;;;5066859;28;20480;-76
2021/07/01 09:45:36;;;;;;;3.90;3.60;;;17.60;99.90;;;;;;5066154;28;20524;-76
2021/07/01 09:48:09;;;;;;;3.80;3.60;;;17.60;99.90;;;;;;5070044;28;20169;-76
2021/07/01 09:50:47;;;;;;;4.53;3.97;;;17.60;99.90;;;;;;5069665;28;20450;-76
2021/07/01 09:53:31;;;;;;;4.57;4.17;;;17.70;99.90;;;;;;5070755;28;20903;-76
2021/07/01 09:56:00;;;;;;;4.10;3.90;;;17.70;99.90;;;;;;5070635;28;20423;-76
2021/07/01 09:58:30;;;;;;;4.30;3.90;;;17.70;99.90;;;;;;5068056;28;20722;-76
2021/07/01 10:00:56;;;;;;;4.33;4.03;;;17.70;99.90;;;;;;5068635;28;20433;-76
2021/07/01 10:03:21;;;;;;;4.60;4.30;;;17.80;99.90;;;;;;5073778;28;20773;-76
2021/07/01 10:05:47;;;;;;;4.63;4.30;;;17.70;99.90;;;;;;5070280;28;20419;-76
2021/07/01 10:08:13;;;;;;;4.67;4.27;;;17.70;99.90;;;;;;5064826;28;20181;-76
2021/07/01 10:10:57;;;;;;;4.80;4.50;;;17.70;99.90;;;;;;5063635;28;20268;-76
2021/07/01 10:13:24;;;;;;;5.10;4.70;;;17.80;99.90;;;;;;5065484;28;20445;-77
2021/07/01 10:15:52;;;;;;;4.47;4.10;;;17.80;99.90;;;;;;5068462;28;20425;-76
2021/07/01 10:18:23;;;;;;;5.10;4.70;;;17.90;99.90;;;;;;5065883;28;20529;-76
2021/07/01 10:20:51;;;;;;;3.97;3.67;;;17.90;99.90;;;;;;5070393;28;20433;-76
2021/07/01 10:23:17;;;;;;;3.43;3.23;;;18.00;99.90;;;;;;5067518;28;20785;-76
2021/07/01 10:25:44;;;;;;;4.50;4.13;;;18.00;99.90;;;;;;5071958;28;20427;-76
2021/07/01 10:28:13;;;;;;;5.20;4.70;;;18.10;99.90;;;;;;5070657;28;20968;-76
2021/07/01 10:30:41;;;;;;;4.53;4.20;;;18.10;99.90;;;;;;5071933;28;20454;-76
2021/07/01 10:33:25;;;;;;;4.07;3.77;;;18.20;99.90;;;;;;5062193;28;20430;-76
2021/07/01 10:35:51;;;;;;;4.17;3.87;;;18.30;99.90;;;;;;5070646;28;20896;-76
2021/07/01 10:38:18;;;;;;;4.30;4.00;;;18.40;99.90;;;;;;5068324;28;20431;-76
2021/07/01 10:40:46;;;;;;;3.93;3.63;;;18.40;99.90;;;;;;5069388;28;20892;-76
2021/07/01 10:43:15;;;;;;;5.37;4.97;;;18.50;99.90;;;;;;5069667;28;20534;-76
2021/07/01 10:45:58;;;;;;;5.60;5.10;;;18.50;99.90;;;;;;5065196;28;20433;-76
2021/07/01 10:48:26;;;;;;;5.77;5.27;;;18.50;99.90;;;;;;5065300;28;20443;-76
2021/07/01 10:50:53;;;;;;;6.20;5.70;;;18.50;99.90;;;;;;5063268;28;20427;-76
2021/07/01 10:53:38;;;;;;;5.63;5.23;;;18.60;99.90;;;;;;5086245;28;20927;-76
2021/07/01 10:56:16;;;;;;;7.07;6.57;;;18.60;99.90;;;;;;5064845;28;20431;-76
2021/07/01 10:58:44;;;;;;;7.33;6.63;;;18.60;99.90;;;;;;5064529;28;20488;-76
2021/07/01 11:01:24;;;;;;;7.47;6.27;;;18.60;99.90;;;;;;5067385;28;20438;-76
2021/07/01 11:04:07;;;;;;;8.00;7.20;;;18.60;99.90;;;;;;5066544;28;20457;-76
2021/07/01 11:06:34;;;;;;;7.20;6.60;;;18.70;99.90;;;;;;5068384;28;20903;-76
2021/07/01 11:09:00;;;;;;;6.17;5.73;;;18.70;99.90;;;;;;5067850;28;20450;-76
2021/07/01 11:11:31;;;;;;;5.20;4.90;;;18.90;99.90;;;;;;5069565;28;20423;-76
2021/07/01 11:13:59;;;;;;;7.30;6.70;;;19.00;99.90;;;;;;5070310;28;20428;-76
2021/07/01 11:16:36;;;;;;;7.30;6.60;;;19.20;99.90;;;;;;5066383;28;20768;-76
2021/07/01 11:19:02;;;;;;;6.50;6.00;;;19.40;99.90;;;;;;5067389;28;20467;-76
2021/07/01 11:21:29;;;;;;;6.23;5.73;;;19.50;99.90;;;;;;5066405;28;20482;-76
2021/07/01 11:24:13;;;;;;;7.73;7.03;;;19.40;99.90;;;;;;5067924;28;20181;-76
2021/07/01 11:26:39;;;;;;;6.73;6.13;;;19.40;99.90;;;;;;5066022;28;20439;-77
2021/07/01 11:29:09;;;;;;;7.47;6.83;;;19.40;99.90;;;;;;5070641;28;20577;-77
2021/07/01 11:31:34;;;;;;;8.10;7.30;;;19.40;99.90;;;;;;5066169;28;20439;-77
2021/07/01 11:34:01;;;;;;;8.03;7.10;;;19.40;99.90;;;;;;5066961;28;20434;-77
2021/07/01 11:36:28;;;;;;;7.00;6.40;;;19.40;99.90;;;;;;5070346;28;20238;-77
2021/07/01 11:39:08;;;;;;;9.13;8.23;;;19.40;99.90;;;;;;5066738;28;20445;-77
2021/07/01 11:41:35;;;;;;;8.87;8.07;;;19.40;99.90;;;;;;5059200;28;20435;-77
2021/07/01 11:44:01;;;;;;;8.43;7.63;;;19.50;99.90;;;;;;5060217;28;20781;-77
2021/07/01 11:46:27;;;;;;;7.53;6.93;;;19.40;99.90;;;;;;5060966;28;20443;-78
2021/07/01 11:48:55;;;;;;;7.43;6.80;;;19.40;99.90;;;;;;5061724;28;20583;-77
2021/07/01 11:51:22;;;;;;;8.77;7.97;;;19.40;99.90;;;;;;5061930;28;20438;-77
2021/07/01 11:53:49;;;;;;;8.00;7.30;;;19.40;99.90;;;;;;5065469;28;20847;-77
2021/07/01 11:56:15;;;;;;;12.90;8.97;;;19.50;99.90;;;;;;5065248;28;20431;-77
2021/07/01 11:58:42;;;;;;;11.90;9.40;;;19.50;99.90;;;;;;5080454;28;20499;-78
2021/07/01 12:01:08;;;;;;;13.03;8.37;;;19.60;99.90;;;;;;5069629;28;20516;-78
2021/07/01 12:03:36;;;;;;;8.50;7.70;;;19.60;99.90;;;;;;5061350;28;20559;-77
2021/07/01 12:06:03;;;;;;;9.87;8.87;;;19.70;99.90;;;;;;5063046;28;20447;-77
2021/07/01 12:08:29;;;;;;;10.23;9.23;;;19.70;99.90;;;;;;5071364;28;20904;-77
2021/07/01 12:11:03;;;;;;;9.40;8.60;;;19.70;99.90;;;;;;5068982;28;20510;-78
2021/07/01 12:13:31;;;;;;;10.00;9.07;;;19.80;99.90;;;;;;5070787;28;20958;-78
2021/07/01 12:16:04;;;;;;;9.57;8.67;;;19.90;99.90;;;;;;5067892;28;20430;-77
2021/07/01 12:18:50;;;;;;;10.73;9.40;;;19.90;99.90;;;;;;5066686;28;20875;-77
2021/07/01 12:21:37;;;;;;;10.47;9.10;;;19.90;99.90;;;;;;5063553;28;20459;-77
2021/07/01 12:24:04;;;;;;;10.37;7.83;;;20.10;99.90;;;;;;5070040;28;20423;-77
2021/07/01 12:26:42;;;;;;;9.93;9.07;;;20.10;99.90;;;;;;5072352;28;20430;-77
2021/07/01 12:29:18;;;;;;;8.00;7.30;;;20.10;99.90;;;;;;5070016;28;20454;-77
2021/07/01 12:31:44;;;;;;;10.03;9.03;;;20.20;99.90;;;;;;5085113;28;20431;-77
2021/07/01 12:34:11;;;;;;;8.23;7.53;;;20.30;99.90;;;;;;5070229;28;20502;-77
2021/07/01 12:36:45;;;;;;;9.70;8.80;;;20.30;99.90;;;;;;5071494;28;20603;-77
2021/07/01 12:39:21;;;;;;;7.50;6.90;;;20.30;99.90;;;;;;5081551;28;20443;-77
2021/07/01 12:41:53;;;;;;;8.97;8.20;;;20.40;99.90;;;;;;5070078;28;20499;-78
2021/07/01 12:44:27;;;;;;;8.67;7.97;;;20.60;99.90;;;;;;5063104;28;20549;-78
2021/07/01 12:46:55;;;;;;;7.77;7.17;;;20.80;99.90;;;;;;5088679;28;20433;-78